createdAt,value
2023-04-25T00:00:43.170Z,54.97
2023-04-25T00:01:43.209Z,58.90
2023-04-25T00:02:43.359Z,54.09
2023-04-25T00:03:43.298Z,49.16
2023-04-25T00:04:43.570Z,42.48
2023-04-25T00:05:43.144Z,53.37
2023-04-25T00:06:44.120Z,32.34
2023-04-25T00:07:43.141Z,29.99
2023-04-25T00:08:43.088Z,36.03
2023-04-25T00:09:43.117Z,52.39
2023-04-25T00:10:43.086Z,58.83
2023-04-25T00:11:43.091Z,43.44
2023-04-25T00:12:43.105Z,31.95
2023-04-25T00:13:43.186Z,39.72
2023-04-25T00:14:43.035Z,43.08
2023-04-25T00:15:43.163Z,51.34
2023-04-25T00:16:43.096Z,45.52
2023-04-25T00:17:43.145Z,48.77
2023-04-25T00:18:43.525Z,43.53
2023-04-25T00:19:43.015Z,44.67
2023-04-25T00:20:43.111Z,57.53
2023-04-25T00:21:42.971Z,49.51
2023-04-25T00:22:43.116Z,46.92
2023-04-25T00:23:42.976Z,43.20
2023-04-25T00:24:42.955Z,51.92
2023-04-25T00:25:42.974Z,50.43
2023-04-25T00:26:42.942Z,56.59
2023-04-25T00:27:42.926Z,55.56
2023-04-25T00:28:42.926Z,50.17
2023-04-25T00:29:42.927Z,44.50
2023-04-25T00:30:42.920Z,53.79
2023-04-25T00:31:42.911Z,57.64
2023-04-25T00:32:42.943Z,47.82
2023-04-25T00:33:42.872Z,44.67
2023-04-25T00:34:42.949Z,54.44
2023-04-25T00:35:42.857Z,46.22
2023-04-25T00:36:42.821Z,44.21
2023-04-25T00:37:42.891Z,55.56
2023-04-25T00:38:42.814Z,54.78
2023-04-25T00:39:42.830Z,59.03
2023-04-25T00:40:42.822Z,52.84
2023-04-25T00:41:42.833Z,52.09
2023-04-25T00:42:42.789Z,59.00
2023-04-25T00:43:42.779Z,49.05
2023-04-25T00:44:42.760Z,43.78
2023-04-25T00:45:42.771Z,41.23
2023-04-25T00:46:42.786Z,48.96
2023-04-25T00:47:42.738Z,54.81
2023-04-25T00:48:42.712Z,52.67
2023-04-25T00:49:42.737Z,59.78
2023-04-25T00:50:42.697Z,53.01
2023-04-25T00:51:42.698Z,42.38
2023-04-25T00:52:42.717Z,54.04
2023-04-25T00:53:42.657Z,46.71
2023-04-25T00:54:42.662Z,37.80
2023-04-25T00:55:42.642Z,50.79
2023-04-25T00:56:42.637Z,32.01
2023-04-25T00:57:42.654Z,32.79
2023-04-25T00:58:42.661Z,52.06
2023-04-25T00:59:42.642Z,49.22
2023-04-25T01:00:42.691Z,56.17
2023-04-25T01:01:42.651Z,61.82
2023-04-25T01:02:42.736Z,53.10
2023-04-25T01:03:42.729Z,59.12
2023-04-25T01:04:42.575Z,50.28
2023-04-25T01:05:42.587Z,50.85
2023-04-25T01:06:42.582Z,47.30
2023-04-25T01:07:42.521Z,60.06
2023-04-25T01:08:42.540Z,54.81
2023-04-25T01:09:42.516Z,53.00
2023-04-25T01:10:42.508Z,53.26
2023-04-25T01:11:42.584Z,46.66
2023-04-25T01:12:42.478Z,46.74
2023-04-25T01:13:42.492Z,53.99
2023-04-25T01:14:42.507Z,56.73
2023-04-25T01:15:42.468Z,52.52
2023-04-25T01:16:42.577Z,54.23
2023-04-25T01:17:42.549Z,56.65
2023-04-25T01:18:42.425Z,50.06
2023-04-25T01:19:42.451Z,54.21
2023-04-25T01:20:42.420Z,55.89
2023-04-25T01:21:42.399Z,55.18
2023-04-25T01:22:42.390Z,55.11
2023-04-25T01:23:42.410Z,56.72
2023-04-25T01:24:42.386Z,51.32
2023-04-25T01:25:42.364Z,55.74
2023-04-25T01:26:42.409Z,54.99
2023-04-25T01:27:42.334Z,47.45
2023-04-25T01:28:42.446Z,57.60
2023-04-25T01:29:42.414Z,56.76
2023-04-25T01:30:42.307Z,55.75
2023-04-25T01:31:42.327Z,48.67
2023-04-25T01:32:42.354Z,37.62
2023-04-25T01:33:42.281Z,52.42
2023-04-25T01:34:42.300Z,52.87
2023-04-25T01:35:42.295Z,46.38
2023-04-25T01:36:42.339Z,52.13
2023-04-25T01:37:42.241Z,49.58
2023-04-25T01:38:42.230Z,51.55
2023-04-25T01:39:42.275Z,55.32
2023-04-25T01:40:42.209Z,55.77
2023-04-25T01:41:42.252Z,40.36
2023-04-25T01:42:42.206Z,51.82
2023-04-25T01:43:42.197Z,57.12
2023-04-25T01:44:42.188Z,56.90
2023-04-25T01:45:42.271Z,54.01
2023-04-25T01:46:42.165Z,51.66
2023-04-25T01:47:42.171Z,56.68
2023-04-25T01:48:42.180Z,48.15
2023-04-25T01:49:42.131Z,46.06
2023-04-25T01:50:42.111Z,50.82
2023-04-25T01:51:42.154Z,59.82
2023-04-25T01:52:42.110Z,57.65
2023-04-25T01:53:42.109Z,52.95
2023-04-25T01:54:42.091Z,55.36
2023-04-25T01:55:42.088Z,55.87
2023-04-25T01:56:42.075Z,60.60
2023-04-25T01:57:42.045Z,60.37
2023-04-25T01:58:42.051Z,50.30
2023-04-25T01:59:42.038Z,55.35
2023-04-25T02:00:42.067Z,59.34
2023-04-25T02:01:42.178Z,52.27
2023-04-25T02:02:42.151Z,44.90
2023-04-25T02:03:42.157Z,45.01
2023-04-25T02:04:42.140Z,49.94
2023-04-25T02:05:42.002Z,50.15
2023-04-25T02:06:42.103Z,52.52
2023-04-25T02:07:42.963Z,53.04
2023-04-25T02:08:41.962Z,47.94
2023-04-25T02:09:41.945Z,50.48
2023-04-25T02:10:41.934Z,50.24
2023-04-25T02:11:41.964Z,46.50
2023-04-25T02:12:41.919Z,54.57
2023-04-25T02:13:41.925Z,56.49
2023-04-25T02:14:41.927Z,51.68
2023-04-25T02:15:41.938Z,56.08
2023-04-25T02:16:41.996Z,52.86
2023-04-25T02:17:41.936Z,44.64
2023-04-25T02:18:41.875Z,52.22
2023-04-25T02:19:41.852Z,55.92
2023-04-25T02:20:41.829Z,54.00
2023-04-25T02:21:41.833Z,54.15
2023-04-25T02:22:41.835Z,55.97
2023-04-25T02:23:41.790Z,56.01
2023-04-25T02:24:41.794Z,53.29
2023-04-25T02:25:41.794Z,40.65
2023-04-25T02:26:41.795Z,46.53
2023-04-25T02:27:41.794Z,54.71
2023-04-25T02:28:41.770Z,53.78
2023-04-25T02:29:41.856Z,55.77
2023-04-25T02:30:41.751Z,54.82
2023-04-25T02:31:41.792Z,53.09
2023-04-25T02:32:41.747Z,58.28
2023-04-25T02:33:41.708Z,56.67
2023-04-25T02:34:42.490Z,55.63
2023-04-25T02:35:41.694Z,57.06
2023-04-25T02:36:41.701Z,53.47
2023-04-25T02:37:41.696Z,42.68
2023-04-25T02:38:41.691Z,49.56
2023-04-25T02:39:41.668Z,52.45
2023-04-25T02:40:41.654Z,55.77
2023-04-25T02:41:41.677Z,52.50
2023-04-25T02:42:41.658Z,58.87
2023-04-25T02:43:41.624Z,57.38
2023-04-25T02:44:41.639Z,58.15
2023-04-25T02:45:41.619Z,54.59
2023-04-25T02:46:41.627Z,56.52
2023-04-25T02:47:41.644Z,53.37
2023-04-25T02:48:41.619Z,59.49
2023-04-25T02:49:41.584Z,58.77
2023-04-25T02:50:41.580Z,54.10
2023-04-25T02:51:41.618Z,56.00
2023-04-25T02:52:41.542Z,54.34
2023-04-25T02:53:41.531Z,53.57
2023-04-25T02:54:41.517Z,56.55
2023-04-25T02:55:41.570Z,53.91
2023-04-25T02:56:41.530Z,53.45
2023-04-25T02:57:41.483Z,58.45
2023-04-25T02:58:41.491Z,51.86
2023-04-25T02:59:41.495Z,53.98
2023-04-25T03:00:41.515Z,57.29
2023-04-25T03:01:42.516Z,52.23
2023-04-25T03:02:41.478Z,55.48
2023-04-25T03:03:41.459Z,58.84
2023-04-25T03:04:41.463Z,57.12
2023-04-25T03:06:14.889Z,58.32
2023-04-25T03:06:41.909Z,61.55
2023-04-25T03:13:53.974Z,61.16
2023-04-25T03:15:01.799Z,61.57
2023-04-25T03:15:55.401Z,59.15
2023-04-25T03:17:29.395Z,58.33
2023-04-25T03:18:38.142Z,65.35
2023-04-25T03:19:33.826Z,53.06
2023-04-25T03:23:19.198Z,62.15
2023-04-25T03:24:59.948Z,63.13
2023-04-25T03:32:27.681Z,60.94
2023-04-25T03:32:50.586Z,0.00
2023-04-25T03:33:34.205Z,62.43
2023-04-25T03:34:34.119Z,61.13
2023-04-25T03:35:34.144Z,62.42
2023-04-25T03:37:07.992Z,66.22
2023-04-25T03:38:01.015Z,65.65
2023-04-25T03:39:15.665Z,64.10
2023-04-25T03:39:34.428Z,59.30
2023-04-25T03:43:39.994Z,63.60
2023-04-25T03:44:32.337Z,61.50
2023-04-25T03:45:32.266Z,62.14
2023-04-25T03:46:32.476Z,60.91
2023-04-25T03:47:48.139Z,59.37
2023-04-25T03:48:32.491Z,63.87
2023-04-25T03:49:33.018Z,63.01
2023-04-25T03:51:07.068Z,62.23
2023-04-25T03:51:34.056Z,60.64
2023-04-25T03:52:33.663Z,61.63
2023-04-25T03:54:06.926Z,63.32
2023-04-25T03:54:36.870Z,61.27
2023-04-25T03:55:34.044Z,62.19
2023-04-25T03:57:01.133Z,60.73
2023-04-25T03:58:06.109Z,62.43
2023-04-25T03:58:34.282Z,63.07
2023-04-25T04:09:23.780Z,62.89
2023-04-25T04:10:50.043Z,62.24
2023-04-25T04:11:15.647Z,61.77
2023-04-25T04:12:15.975Z,62.63
2023-04-25T04:13:15.541Z,63.26
2023-04-25T04:14:49.152Z,62.09
2023-04-25T04:15:15.533Z,63.34
2023-04-25T04:16:55.591Z,62.01
2023-04-25T04:17:15.701Z,61.23
2023-04-25T04:18:49.366Z,62.80
2023-04-25T04:19:15.775Z,62.03
2023-04-25T04:20:53.968Z,62.49
2023-04-25T04:21:48.457Z,60.69
2023-04-25T04:22:16.370Z,63.57
2023-04-25T04:23:48.041Z,64.10
2023-04-25T04:24:17.024Z,62.85
2023-04-25T04:25:48.345Z,64.28
2023-04-25T04:26:15.332Z,63.95
2023-04-25T04:27:49.222Z,63.37
2023-04-25T04:28:47.728Z,61.16
2023-04-25T04:29:15.302Z,63.13
2023-04-25T04:35:47.175Z,62.96
2023-04-25T04:36:40.829Z,62.79
2023-04-25T04:38:13.444Z,64.56
2023-04-25T04:38:42.012Z,61.35
2023-04-25T04:39:40.558Z,62.52
2023-04-25T04:40:40.580Z,62.55
2023-04-25T04:41:40.634Z,63.23
2023-04-25T04:42:41.689Z,63.87
2023-04-25T04:43:40.545Z,64.37
2023-04-25T04:44:40.463Z,64.43
2023-04-25T04:45:40.458Z,64.04
2023-04-25T04:46:40.502Z,62.55
2023-04-25T04:47:40.662Z,64.73
2023-04-25T04:48:40.395Z,63.05
2023-04-25T04:49:40.484Z,63.54
2023-04-25T04:50:40.350Z,64.06
2023-04-25T04:51:40.470Z,63.74
2023-04-25T04:52:40.418Z,62.53
2023-04-25T04:53:40.503Z,62.27
2023-04-25T04:54:42.501Z,63.31
2023-04-25T04:55:40.365Z,63.93
2023-04-25T04:56:40.397Z,63.04
2023-04-25T04:57:40.384Z,63.69
2023-04-25T04:58:40.269Z,64.18
2023-04-25T04:59:40.300Z,62.77
2023-04-25T05:00:40.302Z,61.36
2023-04-25T05:01:40.302Z,62.38
2023-04-25T05:02:40.783Z,61.43
2023-04-25T05:03:41.607Z,62.62
2023-04-25T05:04:40.617Z,64.15
2023-04-25T05:05:40.203Z,61.96
2023-04-25T05:06:40.311Z,63.04
2023-04-25T05:07:40.234Z,62.87
2023-04-25T05:08:40.175Z,62.37
2023-04-25T05:09:41.675Z,63.42
2023-04-25T05:10:40.516Z,63.99
2023-04-25T05:11:40.238Z,64.07
2023-04-25T05:13:12.746Z,64.28
2023-04-25T05:13:40.186Z,61.96
2023-04-25T05:14:40.758Z,65.21
2023-04-25T05:15:40.026Z,62.54
2023-04-25T05:16:41.057Z,64.09
2023-04-25T05:17:40.114Z,63.49
2023-04-25T05:18:40.010Z,64.05
2023-04-25T05:19:40.042Z,63.19
2023-04-25T05:20:39.972Z,62.19
2023-04-25T05:21:40.785Z,64.21
2023-04-25T05:22:40.025Z,61.96
2023-04-25T05:23:39.945Z,63.85
2023-04-25T05:24:39.945Z,64.96
2023-04-25T05:25:39.927Z,63.74
2023-04-25T05:26:40.054Z,63.87
2023-04-25T05:27:39.882Z,64.97
2023-04-25T05:28:39.904Z,61.77
2023-04-25T05:29:39.887Z,65.45
2023-04-25T05:30:39.935Z,62.74
2023-04-25T05:31:39.948Z,61.97
2023-04-25T05:32:39.887Z,64.44
2023-04-25T05:33:39.883Z,63.96
2023-04-25T05:34:39.910Z,63.99
2023-04-25T05:35:39.826Z,64.53
2023-04-25T05:36:39.837Z,64.15
2023-04-25T05:37:39.806Z,64.65
2023-04-25T05:38:39.785Z,64.99
2023-04-25T05:39:39.797Z,63.10
2023-04-25T05:40:39.770Z,62.58
2023-04-25T05:41:39.802Z,63.48
2023-04-25T05:42:39.757Z,65.52
2023-04-25T05:43:40.790Z,62.27
2023-04-25T05:44:39.739Z,64.75
2023-04-25T05:45:39.769Z,63.44
2023-04-25T05:46:39.711Z,63.91
2023-04-25T05:47:39.763Z,64.10
2023-04-25T05:48:39.702Z,64.74
2023-04-25T05:49:39.662Z,62.74
2023-04-25T05:50:39.681Z,64.04
2023-04-25T05:51:39.724Z,63.65
2023-04-25T05:52:39.694Z,61.48
2023-04-25T05:53:39.653Z,61.97
2023-04-25T05:54:39.640Z,62.39
2023-04-25T05:55:39.631Z,61.86
2023-04-25T05:56:39.658Z,62.46
2023-04-25T05:57:39.595Z,63.48
2023-04-25T05:58:39.587Z,61.68
2023-04-25T05:59:39.603Z,61.01
2023-04-25T06:00:39.701Z,63.04
2023-04-25T06:01:39.547Z,63.25
2023-04-25T06:02:39.660Z,61.30
2023-04-25T06:03:39.831Z,61.20
2023-04-25T06:04:39.613Z,60.24
2023-04-25T06:05:39.576Z,61.50
2023-04-25T06:06:39.573Z,61.58
2023-04-25T06:07:39.541Z,61.98
2023-04-25T06:08:39.528Z,62.68
2023-04-25T06:09:39.573Z,62.20
2023-04-25T06:10:39.529Z,61.58
2023-04-25T06:11:39.512Z,60.64
2023-04-25T06:12:39.526Z,64.19
2023-04-25T06:13:39.481Z,61.23
2023-04-25T06:14:39.559Z,63.46
2023-04-25T06:15:39.492Z,64.61
2023-04-25T06:16:39.555Z,62.68
2023-04-25T06:17:39.450Z,62.82
